Bigelow, Minnesota
Current Conditions -  °F | °C
As of 7:15 AM on Friday 31 Oct 2014 (Local Time) from KOTG Reporting Station
Clear Clear  
Wind Chill:   Ceiling: Unl
Heat Index: 19°   Visibility: 10mi
Dew Point: 16°   Wind: 9mph
Humidity: 86%   Direction: 340°NNW
Pressure: 30.52"   Gusts: NA
Location:  43.51°N, 95.69°W
Report Text: KOTG 311215Z AUTO 34008KT 10SM CLR M07/M09 A3052 RMK AO1
Loading
Personal Weather Stations






























Interactive Weather Map
Tropical Storm Tracking
New forecast layout! Learn more

10-Day Weather Forecast

Advertisements
Track Severe Weather on mobile